首页
METAR-TAF:

METAR-TAF

机场 :

Plantation Airpark

Sylvania, 喬治亞, 美国

纬度: 32-38-43N, 经度: 081-35-47W, 海拔: 57米

当前天气观测

该预报发布于19分钟前的20:35 UTC
风速4节,风向东转东南
温度 16°C
湿度 59%
气压 1023 hPa
能見度: 16.1公里
散云层高于4700英尺
散云层高于5500英尺
多云层高于6500英尺

METAR: KJYL 132035Z AUTO 12004KT 10SM SCT047 SCT055 BKN065 16/08 A3021 RMK AO2 T01570083

时间: 15:54 (20:54 UTC)


TAF: 丢失

超过4000个机场的气象观测和天气预报(METAR&TAF报告)。

可查询的气象台以黄色和红色小点在地图上表示。

将鼠标移到小点上方,可查看气象台名称。

然后点击查看天气观测和预报。

如需切换地图:点击带黑十字的绿色按钮放大地图;点击带横线的绿色按钮缩小地图;或者点击绿色箭头查看邻近地区的地图。


METAR-TAF: